Vienna, North Carolina
Current Conditions -  °F | °C
As of 6:54 AM on Thursday 27 Nov 2014 (Local Time) from KINT Reporting Station
Light Rain Light Rain  
Wind Chill: 40°   Ceiling: 300
Heat Index: 40°   Visibility: 6mi
Dew Point: 38°   Wind: 3mph
Humidity: 93%   Direction: 340°NNW
Pressure: 29.99"   Gusts: NA
Location:  36.1722°N, 80.3739°W
Report Text: KINT 271154Z 34003KT 6SM -RA BR OVC003 04/03 A2999 RMK AO2 RAB33 SLP156 P0000 60002 70043 T00440033 10050 20044 55003
Loading
Personal Weather Stations






























Interactive Weather Map New forecast layout! Learn more

10-Day Weather Forecast

Advertisements
Track Severe Weather on mobile